This is the latest recevied weather packets stored in our database for station/object IW1CGW-23. If no packets are shown the sender has not sent any weather packets the latest 10 day(s).
| Time | Temp. | Humidity | Pressure | Rain* | Wind** | Luminosity | Snow |
|---|---|---|---|---|---|---|---|
| 1777575263 | 18.33° C | 49% | 1020.8 hPa | - | - | - | - |
| 1777572913 | 20° C | 46% | 1020.4 hPa | - | - | - | - |
| 1777571346 | 20.56° C | 46% | 1020.3 hPa | - | - | - | - |
| 1777570561 | 20.56° C | 46% | 1020.1 hPa | - | - | - | - |
| 1777569777 | 20.56° C | 46% | 1020.1 hPa | - | - | - | - |
| 1777567423 | 21.11° C | 46% | 1019.9 hPa | - | - | - | - |
| 1777565859 | 21.11° C | 45% | 1019.7 hPa | - | - | - | - |
| 1777564285 | 21.67° C | 45% | 1019.6 hPa | - | - | - | - |
| 1777561931 | 21.67° C | 44% | 1019.4 hPa | - | - | - | - |
| 1777560360 | 22.22° C | 46% | 1019.4 hPa | - | - | - | - |
| 1777558790 | 22.22° C | 47% | 1019.2 hPa | - | - | - | - |
| 1777558009 | 22.22° C | 50% | 1019.3 hPa | - | - | - | - |
| 1777557224 | 21.67° C | 57% | 1019.2 hPa | - | - | - | - |
| 1777546232 | 21.67° C | 64% | 1019.7 hPa | - | - | - | - |
| 1777540729 | 20° C | 71% | 1019.7 hPa | - | - | - | - |
| 1777538374 | 20.56° C | 67% | 1019.6 hPa | - | - | - | - |
| 1777529749 | 18.89° C | 65% | 1018.4 hPa | - | - | - | - |
| 1777528964 | 17.78° C | 66% | 1018.2 hPa | - | - | - | - |
| 1777525833 | 17.78° C | 63% | 1017.6 hPa | - | - | - | - |
| 1777523484 | 18.33° C | 59% | 1017.4 hPa | - | - | - | - |
| 1777522700 | 18.33° C | 57% | 1017.5 hPa | - | - | - | - |
| 1777521917 | 18.33° C | 57% | 1017.5 hPa | - | - | - | - |
| 1777521134 | 18.33° C | 55% | 1017.3 hPa | - | - | - | - |
| 1777520351 | 18.33° C | 56% | 1017.4 hPa | - | - | - | - |
| 1777519568 | 18.33° C | 57% | 1017.2 hPa | - | - | - | - |
* Rain since midnight (hover to see other rain measurements)
** Current wind speed in m/s (hover to see current wind gust speed)